Terminal Aerodrome Forecast
Issued by NWS

Home | Current Version | Previous Version | Graphics & Text | Print | Product List | Glossary On
Versions: 1 2 3 4 5 6 7 8 9 10 11 12 13 14 15 16 17 18 19 20 21 22 23 24 25 26 27 28 29 30 31 32 33 34 35 36 37
000
FTUS45 KGGW 021500 AAA
TAFOLF
TAF AMD
KOLF 021536Z 0216/0312 VRB06KT 5SM FU SCT020
     FM021900 34010KT 5SM FU BKN060
     FM030000 36007KT P6SM SCT140
     FM030300 VRB03KT P6SM SCT190=

USA.gov is the U.S. government's official web portal to all federal, state and local government web resources and services.